aviador You're here:

ETAD Decoded Metar

SPANGDAHLEM in GERMANY
Report Time2017-08-22 21:58:00
UTC Time2017-08-22 22:33:02
Flight Rules vfr VFR
Wind080° at 07 kt
W.Decomp.*RWY 05: 6.1 kt HW 3.4 kt RCW
W.Rank080° ranks 6
Current wind is above 080° avg. (5.9)
Visibility9999 m
Phenomena:N/A
Clouds:Few 160 Hf
Expected CloudBase > 2,400 ft AGL from Temp-Dew spread
CeilingNone
Temp17°C (ISA +4)
Dew Point11°C (68% RH)
AAT14.8°C
QNH1019 hPa
Density Alt1,693 ft
Elevation1,198 ft
Report Wrong Elevation
Raw Report
ETAD 222158Z AUTO 08007KT 9999 FEW160 17/11 A3008 RMK AO2 SLP168
T01650112 TSNO $=

Extra information for ETAD:More info

Metar Taf Metar & Taf Last 4 Metars F.Rules Stats Wind Profile Meteogram Temp Stats Airport Information Weather charts Add Link Nearby VenuesMetar ALERT Operation Metar Decoded Social comments